Time;durP1;ratioP1;P1;durP2;ratioP2;P2;SDS_P1;SDS_P2;PMS_P1;PMS_P2;Temp;Humidity;BMP_temperature;BMP_pressure;BME280_temperature;BME280_humidity;BME280_pressure;Samples;Min_cycle;Max_cycle;Signal;HPM_P1;HPM_P2
2021/12/02 00:00:33;;;;;;;4.78;1.70;;;3.90;99.90;;;;;;5055981;28;20024;-81
2021/12/02 00:02:59;;;;;;;6.40;1.40;;;3.80;99.90;;;;;;5057034;28;20147;-81
2021/12/02 00:05:25;;;;;;;5.10;1.15;;;3.70;99.90;;;;;;5045542;28;20048;-81
2021/12/02 00:07:51;;;;;;;8.13;1.23;;;3.70;99.90;;;;;;5060089;28;20036;-81
2021/12/02 00:10:17;;;;;;;4.60;1.25;;;3.70;99.90;;;;;;5048997;28;20367;-81
2021/12/02 00:12:43;;;;;;;5.85;1.25;;;3.70;99.90;;;;;;5058432;28;20052;-81
2021/12/02 00:15:18;;;;;;;6.45;1.42;;;3.70;99.90;;;;;;5066937;28;20059;-81
2021/12/02 00:17:52;;;;;;;6.63;1.48;;;3.60;99.90;;;;;;5058418;28;20497;-81
2021/12/02 00:23:22;;;;;;;9.98;1.77;;;3.40;99.90;;;;;;5064171;28;20043;-81
2021/12/02 00:25:51;;;;;;;6.72;1.67;;;3.40;99.90;;;;;;5076727;28;20438;-81
2021/12/02 00:28:20;;;;;;;11.27;1.65;;;3.40;99.90;;;;;;5047683;28;20131;-81
2021/12/02 00:30:46;;;;;;;6.28;1.30;;;3.40;99.90;;;;;;5059935;28;20084;-81
2021/12/02 00:33:16;;;;;;;6.30;1.60;;;3.30;99.90;;;;;;5040747;28;20127;-81
2021/12/02 00:35:43;;;;;;;8.70;1.88;;;3.40;99.90;;;;;;5036057;28;20281;-81
2021/12/02 00:38:10;;;;;;;4.43;1.10;;;3.40;99.90;;;;;;5045331;28;20089;-81
2021/12/02 00:40:37;;;;;;;7.53;1.52;;;3.40;99.90;;;;;;5061187;28;20047;-81
2021/12/02 00:43:03;;;;;;;6.88;1.35;;;3.40;99.90;;;;;;5058467;28;20040;-81
2021/12/02 00:45:29;;;;;;;6.20;1.38;;;3.40;99.90;;;;;;5077775;28;20047;-81
2021/12/02 00:47:54;;;;;;;6.22;1.33;;;3.50;99.90;;;;;;5041472;28;20040;-81
2021/12/02 00:50:20;;;;;;;4.65;1.30;;;3.50;99.90;;;;;;5045151;28;20474;-81
2021/12/02 00:52:49;;;;;;;6.15;1.52;;;3.60;99.90;;;;;;5045277;28;20052;-81
2021/12/02 00:55:15;;;;;;;4.28;1.25;;;3.60;99.90;;;;;;5056656;28;20498;-81
2021/12/02 00:57:42;;;;;;;7.50;1.35;;;3.70;99.90;;;;;;5057934;28;20074;-81
2021/12/02 01:00:08;;;;;;;5.40;1.83;;;3.70;99.90;;;;;;5059880;28;20183;-81
2021/12/02 01:02:35;;;;;;;6.97;1.52;;;3.80;99.90;;;;;;5051452;28;20044;-81
2021/12/02 01:05:00;;;;;;;10.40;1.60;;;3.80;99.90;;;;;;5053992;28;20407;-81
2021/12/02 01:07:26;;;;;;;6.57;1.55;;;3.70;99.90;;;;;;5043520;28;20036;-81
2021/12/02 01:09:52;;;;;;;6.18;1.60;;;3.80;99.90;;;;;;5061990;28;20037;-81
2021/12/02 01:12:21;;;;;;;7.22;1.50;;;3.80;99.90;;;;;;5052893;28;21009;-81
2021/12/02 01:14:47;;;;;;;6.47;1.40;;;3.80;99.90;;;;;;5046773;28;20181;-81
2021/12/02 01:17:13;;;;;;;10.43;2.10;;;3.70;99.90;;;;;;5066343;28;20173;-81
2021/12/02 01:19:38;;;;;;;6.43;1.50;;;3.70;99.90;;;;;;5055972;28;20116;-81
2021/12/02 01:22:05;;;;;;;7.95;1.67;;;3.70;99.90;;;;;;5050446;28;20048;-81
2021/12/02 01:24:31;;;;;;;7.43;0.90;;;3.80;99.90;;;;;;5080179;28;20097;-81
2021/12/02 01:26:57;;;;;;;7.28;0.90;;;3.90;99.90;;;;;;5075683;28;20041;-81
2021/12/02 01:29:24;;;;;;;4.45;0.70;;;4.10;99.90;;;;;;5061999;28;20060;-82
2021/12/02 01:31:53;;;;;;;2.92;0.65;;;4.30;99.90;;;;;;5060401;28;20911;-80
2021/12/02 01:34:28;;;;;;;4.30;0.82;;;4.30;99.90;;;;;;5037692;28;20055;-81
2021/12/02 01:36:55;;;;;;;3.83;0.95;;;4.40;99.90;;;;;;5040752;28;20116;-81
2021/12/02 01:39:21;;;;;;;5.03;1.00;;;4.00;99.90;;;;;;5062301;28;20063;-82
2021/12/02 01:41:50;;;;;;;3.40;0.93;;;3.50;99.90;;;;;;5042172;28;20036;-81
2021/12/02 01:44:21;;;;;;;5.70;0.88;;;3.40;99.90;;;;;;5055759;28;20160;-81
2021/12/02 01:46:49;;;;;;;3.70;1.15;;;3.30;99.90;;;;;;5082071;28;20040;-82
2021/12/02 01:49:16;;;;;;;5.28;0.90;;;3.30;99.90;;;;;;5055084;28;20124;-81
2021/12/02 01:51:45;;;;;;;5.55;1.10;;;3.30;99.90;;;;;;5041851;28;20047;-82
2021/12/02 01:54:14;;;;;;;4.18;0.93;;;3.30;99.90;;;;;;5041902;28;20067;-81
2021/12/02 01:56:53;;;;;;;8.15;1.20;;;3.30;99.90;;;;;;5069409;28;20036;-81
2021/12/02 01:59:22;;;;;;;3.97;0.90;;;3.40;99.90;;;;;;5058537;28;20095;-81
2021/12/02 02:01:51;;;;;;;6.90;0.93;;;3.40;99.90;;;;;;5038951;28;20033;-81
2021/12/02 02:04:19;;;;;;;6.18;0.98;;;3.40;99.90;;;;;;5041599;28;20049;-81
2021/12/02 02:07:03;;;;;;;4.80;0.85;;;3.40;99.90;;;;;;5052872;28;20040;-81
2021/12/02 02:09:32;;;;;;;6.82;1.05;;;3.40;99.90;;;;;;5060084;28;20124;-81
2021/12/02 02:12:02;;;;;;;5.50;1.08;;;3.50;99.90;;;;;;5044814;28;20645;-82
2021/12/02 02:14:31;;;;;;;4.63;0.70;;;3.40;99.90;;;;;;5060783;28;20037;-81
2021/12/02 02:16:59;;;;;;;4.07;0.75;;;3.40;99.90;;;;;;5075743;28;20111;-81
2021/12/02 02:19:29;;;;;;;4.30;1.17;;;3.40;99.90;;;;;;5054557;28;20165;-81
2021/12/02 02:21:59;;;;;;;4.45;0.93;;;3.30;99.90;;;;;;5054150;28;20037;-81
2021/12/02 02:24:24;;;;;;;2.13;0.60;;;3.40;99.90;;;;;;5040119;28;20047;-82
2021/12/02 02:26:50;;;;;;;3.75;0.85;;;3.30;99.90;;;;;;5055582;28;20036;-81
2021/12/02 02:29:18;;;;;;;3.03;0.95;;;3.20;99.90;;;;;;5046101;28;20043;-82
2021/12/02 02:31:44;;;;;;;6.10;1.02;;;3.10;99.90;;;;;;5048486;28;20590;-81
2021/12/02 02:34:10;;;;;;;3.70;0.70;;;3.10;99.90;;;;;;5046622;28;20128;-81
2021/12/02 02:36:40;;;;;;;3.60;0.77;;;3.10;99.90;;;;;;5047007;28;20028;-81
2021/12/02 02:39:06;;;;;;;4.35;0.85;;;3.00;99.90;;;;;;5049020;28;20155;-81
2021/12/02 02:41:37;;;;;;;6.63;1.05;;;3.00;99.90;;;;;;5043338;28;20155;-81
2021/12/02 02:44:08;;;;;;;5.22;0.90;;;3.10;99.90;;;;;;5047006;28;20062;-81
2021/12/02 02:46:36;;;;;;;3.35;0.65;;;3.10;99.90;;;;;;5062117;28;20065;-81
2021/12/02 02:49:05;;;;;;;5.28;1.05;;;3.10;99.90;;;;;;5047809;28;20534;-81
2021/12/02 02:51:36;;;;;;;2.38;0.88;;;3.10;99.90;;;;;;5044173;28;20048;-82
2021/12/02 02:54:05;;;;;;;4.38;1.08;;;3.20;99.90;;;;;;5058961;28;20344;-81
2021/12/02 02:56:41;;;;;;;3.95;0.63;;;3.20;99.90;;;;;;5058004;28;20045;-82
2021/12/02 03:01:52;;;;;;;4.03;0.85;;;3.20;99.90;;;;;;5066155;28;20583;-81
2021/12/02 03:04:43;;;;;;;9.63;1.73;;;3.20;99.90;;;;;;5051757;28;20048;-81
2021/12/02 03:07:13;;;;;;;6.88;0.73;;;3.20;99.90;;;;;;5048256;28;20075;-81
2021/12/02 03:09:54;;;;;;;4.32;0.77;;;3.20;99.90;;;;;;5050214;28;20032;-81
2021/12/02 03:12:31;;;;;;;2.92;0.98;;;3.20;99.90;;;;;;5043760;28;20060;-81
2021/12/02 03:17:26;;;;;;;4.20;1.00;;;3.30;99.90;;;;;;5064929;28;20577;-81
2021/12/02 03:19:52;;;;;;;6.65;0.90;;;3.30;99.90;;;;;;5058521;28;20442;-81
2021/12/02 03:22:17;;;;;;;5.00;0.95;;;3.30;99.90;;;;;;5058143;28;20529;-81
2021/12/02 03:24:43;;;;;;;4.50;0.90;;;3.20;99.90;;;;;;5051637;28;20039;-81
2021/12/02 03:27:09;;;;;;;2.28;0.88;;;3.30;99.90;;;;;;5063547;28;20041;-81
2021/12/02 03:29:35;;;;;;;3.38;0.80;;;3.30;99.90;;;;;;5045279;28;20040;-81
2021/12/02 03:32:01;;;;;;;3.95;0.80;;;3.30;99.90;;;;;;5065931;28;20506;-81
2021/12/02 03:34:27;;;;;;;3.17;0.85;;;3.20;99.90;;;;;;5047877;28;20071;-81
2021/12/02 03:36:53;;;;;;;3.85;1.08;;;3.20;99.90;;;;;;5044809;28;20094;-81
2021/12/02 03:39:19;;;;;;;2.20;1.00;;;3.20;99.90;;;;;;5046731;28;20403;-81
2021/12/02 03:41:45;;;;;;;2.67;0.60;;;3.10;99.90;;;;;;5074522;28;20036;-81
2021/12/02 03:44:12;;;;;;;4.80;0.95;;;3.00;99.90;;;;;;5064805;28;20041;-81
2021/12/02 03:46:38;;;;;;;1.63;0.60;;;2.90;99.90;;;;;;5046815;28;20060;-81
2021/12/02 03:49:04;;;;;;;2.40;0.65;;;2.80;99.90;;;;;;5053843;28;20766;-81
2021/12/02 03:51:33;;;;;;;3.85;0.85;;;2.70;99.90;;;;;;5052701;28;20097;-81
2021/12/02 03:53:59;;;;;;;2.95;0.50;;;2.60;99.90;;;;;;5039413;28;20619;-81
2021/12/02 03:56:25;;;;;;;3.08;0.45;;;2.60;99.90;;;;;;5039071;28;20162;-81
2021/12/02 03:58:52;;;;;;;0.73;0.40;;;2.60;99.90;;;;;;5058845;28;20131;-81
2021/12/02 04:01:18;;;;;;;0.65;0.38;;;2.50;99.90;;;;;;5051408;28;20086;-81
2021/12/02 04:03:44;;;;;;;2.70;0.90;;;2.40;99.90;;;;;;5033040;28;20422;-81
2021/12/02 04:06:14;;;;;;;2.28;1.10;;;2.40;99.90;;;;;;5043618;28;20052;-81
2021/12/02 04:08:50;;;;;;;2.17;0.93;;;2.30;99.90;;;;;;5049625;28;20423;-81
2021/12/02 04:16:20;;;;;;;4.53;0.98;;;2.20;99.90;;;;;;5063651;28;20186;-81
2021/12/02 04:18:49;;;;;;;4.43;0.80;;;2.10;99.90;;;;;;5047761;28;20032;-81
2021/12/02 04:21:15;;;;;;;5.90;1.10;;;2.20;99.90;;;;;;5061518;28;20461;-81
2021/12/02 04:23:41;;;;;;;1.33;0.90;;;2.10;99.90;;;;;;5054198;28;20107;-81
2021/12/02 04:26:07;;;;;;;3.20;1.10;;;2.00;99.90;;;;;;5057776;28;20036;-81
2021/12/02 04:28:33;;;;;;;3.75;1.10;;;2.10;99.90;;;;;;5060737;28;20090;-81
2021/12/02 04:30:59;;;;;;;4.97;1.10;;;2.10;99.90;;;;;;5043170;28;20443;-81
2021/12/02 04:33:25;;;;;;;4.07;1.67;;;1.90;99.90;;;;;;5057101;28;20115;-81
2021/12/02 04:35:52;;;;;;;4.22;1.83;;;1.90;99.90;;;;;;5050687;28;20045;-81
2021/12/02 04:38:19;;;;;;;3.38;1.15;;;1.90;99.90;;;;;;5050829;28;20089;-81
2021/12/02 04:40:45;;;;;;;2.58;0.90;;;1.90;99.90;;;;;;5052752;28;20024;-81
2021/12/02 04:43:11;;;;;;;4.75;1.40;;;2.00;99.90;;;;;;5058817;28;20060;-81
2021/12/02 04:45:37;;;;;;;2.85;1.20;;;1.90;99.90;;;;;;5045241;28;20086;-81
2021/12/02 04:48:06;;;;;;;3.55;1.40;;;1.90;99.90;;;;;;5055631;28;20330;-81
2021/12/02 04:50:32;;;;;;;3.30;1.20;;;1.90;99.90;;;;;;5041717;28;20448;-81
2021/12/02 04:52:58;;;;;;;4.60;0.70;;;1.90;99.90;;;;;;5041601;28;20042;-81
2021/12/02 04:55:23;;;;;;;2.65;0.93;;;2.00;99.90;;;;;;5059883;28;20469;-81
2021/12/02 04:57:49;;;;;;;2.78;0.90;;;2.00;99.90;;;;;;5065405;28;20029;-81
2021/12/02 05:00:16;;;;;;;3.10;0.68;;;1.90;99.90;;;;;;5045960;28;20372;-80
2021/12/02 05:02:43;;;;;;;1.73;0.68;;;2.10;99.90;;;;;;5044779;28;20060;-81
2021/12/02 05:05:09;;;;;;;3.80;0.80;;;2.10;99.90;;;;;;5042541;28;20116;-81
2021/12/02 05:07:34;;;;;;;2.05;0.70;;;2.10;99.90;;;;;;5060549;28;20427;-81
2021/12/02 05:10:01;;;;;;;2.40;0.52;;;2.10;99.90;;;;;;5051150;28;20444;-81
2021/12/02 05:12:27;;;;;;;2.40;0.60;;;2.20;99.90;;;;;;5049744;28;20047;-81
2021/12/02 05:14:52;;;;;;;2.33;0.60;;;2.30;99.90;;;;;;5065727;28;20256;-81
2021/12/02 05:17:18;;;;;;;2.45;0.50;;;2.20;99.90;;;;;;5049899;28;20055;-81
2021/12/02 05:19:44;;;;;;;2.05;0.68;;;2.30;99.90;;;;;;5058828;28;20044;-81
2021/12/02 05:22:11;;;;;;;1.45;0.80;;;2.30;99.90;;;;;;5046082;28;20359;-81
2021/12/02 05:24:37;;;;;;;1.05;0.60;;;2.40;99.90;;;;;;5053067;28;20033;-81
2021/12/02 05:27:03;;;;;;;3.63;0.57;;;2.40;99.90;;;;;;5056406;28;20036;-81
2021/12/02 05:29:28;;;;;;;2.45;0.63;;;2.40;99.90;;;;;;5077646;28;20041;-81
2021/12/02 05:31:54;;;;;;;2.38;0.93;;;2.40;99.90;;;;;;5036293;28;20105;-81
2021/12/02 05:34:20;;;;;;;3.67;0.70;;;2.50;99.90;;;;;;5064326;28;20040;-81
2021/12/02 05:36:45;;;;;;;2.30;0.80;;;2.40;99.90;;;;;;5050242;28;20032;-82
2021/12/02 05:39:11;;;;;;;2.53;0.60;;;2.40;99.90;;;;;;5045647;28;20036;-81
2021/12/02 05:41:37;;;;;;;3.45;0.90;;;2.50;99.90;;;;;;5045480;28;20028;-81
2021/12/02 05:44:03;;;;;;;3.38;0.93;;;2.40;99.90;;;;;;5060735;28;20040;-82
2021/12/02 05:46:29;;;;;;;3.40;0.88;;;2.50;99.90;;;;;;5060044;28;20378;-82
2021/12/02 05:48:54;;;;;;;2.55;0.90;;;2.40;99.90;;;;;;5059848;28;20044;-82
2021/12/02 05:51:20;;;;;;;1.63;0.73;;;2.30;99.90;;;;;;5071333;28;20166;-82
2021/12/02 05:53:46;;;;;;;2.97;0.80;;;2.20;99.90;;;;;;5058839;28;20047;-81
2021/12/02 05:56:12;;;;;;;4.90;0.70;;;1.90;99.90;;;;;;5055994;28;20033;-81
2021/12/02 05:58:39;;;;;;;1.52;0.40;;;2.00;99.90;;;;;;5080453;28;20412;-82
2021/12/02 06:01:04;;;;;;;1.85;0.60;;;1.80;99.90;;;;;;5062937;28;20485;-81
2021/12/02 06:03:36;;;;;;;1.77;0.50;;;1.80;99.90;;;;;;5034407;28;20064;-82
2021/12/02 06:06:03;;;;;;;2.17;0.40;;;1.70;99.90;;;;;;5049610;28;20513;-82
2021/12/02 06:08:29;;;;;;;1.52;0.50;;;1.60;99.90;;;;;;5053560;28;20526;-82
2021/12/02 06:10:54;;;;;;;1.23;0.32;;;1.70;99.90;;;;;;5045610;28;20068;-82
2021/12/02 06:13:20;;;;;;;2.83;0.50;;;1.60;99.90;;;;;;5040144;28;20195;-82
2021/12/02 06:15:46;;;;;;;2.53;0.50;;;1.60;99.90;;;;;;5043181;28;20041;-82
2021/12/02 06:18:11;;;;;;;0.80;0.25;;;1.60;99.90;;;;;;5057620;28;20062;-82
2021/12/02 06:20:37;;;;;;;2.05;0.40;;;1.50;99.90;;;;;;5049695;28;20420;-82
2021/12/02 06:23:02;;;;;;;2.53;0.47;;;1.50;99.90;;;;;;5042650;28;20151;-82
2021/12/02 06:27:56;;;;;;;1.15;0.50;;;1.60;99.90;;;;;;5055008;28;20076;-83
2021/12/02 06:30:25;;;;;;;3.50;0.80;;;1.60;99.90;;;;;;5043749;28;20484;-83
2021/12/02 06:32:56;;;;;;;1.75;0.52;;;1.60;99.90;;;;;;5055980;28;20060;-82
2021/12/02 06:35:22;;;;;;;2.50;0.60;;;1.60;99.90;;;;;;5040114;28;20086;-83
2021/12/02 06:37:49;;;;;;;3.25;0.77;;;1.60;99.90;;;;;;5056148;28;20052;-83
2021/12/02 06:40:15;;;;;;;2.50;0.55;;;1.60;99.90;;;;;;5040697;28;20393;-83
2021/12/02 06:42:41;;;;;;;2.72;0.65;;;1.60;99.90;;;;;;5043426;28;20138;-83
2021/12/02 06:45:11;;;;;;;2.38;0.55;;;1.60;99.90;;;;;;5056779;28;20045;-83
2021/12/02 06:47:41;;;;;;;0.98;0.85;;;1.60;99.90;;;;;;5058766;28;20152;-82
2021/12/02 06:50:16;;;;;;;2.28;1.05;;;1.50;99.90;;;;;;5056210;28;20469;-83
2021/12/02 06:52:42;;;;;;;2.45;1.60;;;1.60;99.90;;;;;;5041964;28;20097;-83
2021/12/02 06:55:08;;;;;;;2.15;0.90;;;1.60;99.90;;;;;;5059998;28;20493;-83
2021/12/02 06:57:34;;;;;;;2.53;0.65;;;1.50;99.90;;;;;;5044862;28;20040;-83
2021/12/02 07:00:04;;;;;;;1.50;0.60;;;1.50;99.90;;;;;;5042969;28;20036;-83
2021/12/02 07:02:30;;;;;;;1.13;0.60;;;1.50;99.90;;;;;;5037817;28;20040;-83
2021/12/02 07:04:58;;;;;;;2.75;0.70;;;1.50;99.90;;;;;;5049112;28;20047;-84
2021/12/02 07:07:24;;;;;;;1.80;0.65;;;1.60;99.90;;;;;;5058837;28;20052;-83
2021/12/02 07:09:49;;;;;;;3.58;2.95;;;1.60;99.90;;;;;;5050201;28;20053;-83
2021/12/02 07:12:18;;;;;;;3.83;2.85;;;1.60;99.90;;;;;;5043592;28;20604;-83
2021/12/02 07:14:48;;;;;;;2.50;1.65;;;1.60;99.90;;;;;;5050715;28;20045;-83
2021/12/02 07:17:13;;;;;;;2.42;1.02;;;1.60;99.90;;;;;;5088268;28;20438;-83
2021/12/02 07:19:40;;;;;;;2.17;0.65;;;1.60;99.90;;;;;;5063020;28;20457;-83
2021/12/02 07:22:06;;;;;;;11.50;9.05;;;1.60;99.90;;;;;;5072796;28;20044;-83
2021/12/02 07:24:32;;;;;;;5.40;4.70;;;1.50;99.90;;;;;;5041330;28;20071;-83
2021/12/02 07:26:57;;;;;;;4.32;3.90;;;1.60;99.90;;;;;;5059566;28;20113;-83
2021/12/02 07:29:23;;;;;;;4.20;2.58;;;1.60;99.90;;;;;;5063002;28;20581;-83
2021/12/02 07:31:50;;;;;;;1.52;1.10;;;1.60;99.90;;;;;;5043164;28;20082;-83
2021/12/02 07:34:17;;;;;;;2.78;1.23;;;1.60;99.90;;;;;;5053632;28;20048;-83
2021/12/02 07:36:44;;;;;;;1.48;0.82;;;1.60;99.90;;;;;;5052363;28;20517;-83
2021/12/02 07:39:10;;;;;;;1.45;1.00;;;1.50;99.90;;;;;;5042832;28;20355;-83
2021/12/02 07:41:42;;;;;;;1.88;0.98;;;1.60;99.90;;;;;;5045121;28;20032;-83
2021/12/02 07:44:13;;;;;;;2.50;1.45;;;1.60;99.90;;;;;;5058656;28;20201;-83
2021/12/02 07:46:39;;;;;;;2.15;1.10;;;1.60;99.90;;;;;;5057123;28;20041;-82
2021/12/02 07:49:04;;;;;;;3.72;1.25;;;1.70;99.90;;;;;;5045134;28;20659;-83
2021/12/02 07:51:33;;;;;;;3.03;1.30;;;1.70;99.90;;;;;;5046053;28;20036;-82
2021/12/02 07:53:58;;;;;;;2.38;1.20;;;1.80;99.90;;;;;;5043806;28;20083;-83
2021/12/02 07:56:25;;;;;;;2.40;1.45;;;1.80;99.90;;;;;;5046492;28;20071;-83
2021/12/02 07:58:51;;;;;;;1.88;1.27;;;1.80;99.90;;;;;;5043932;28;20037;-83
2021/12/02 08:01:17;;;;;;;2.05;1.42;;;1.80;99.90;;;;;;5038279;28;20037;-82
2021/12/02 08:03:44;;;;;;;2.17;1.40;;;1.80;99.90;;;;;;5061117;28;20033;-82
2021/12/02 08:06:16;;;;;;;3.50;1.55;;;1.80;99.90;;;;;;5047936;28;20119;-82
2021/12/02 08:08:45;;;;;;;3.63;1.60;;;1.80;99.90;;;;;;5059716;28;20033;-83
2021/12/02 08:11:11;;;;;;;3.53;1.83;;;1.80;99.90;;;;;;5031781;28;20033;-83
2021/12/02 08:13:37;;;;;;;3.35;1.55;;;1.90;99.90;;;;;;5044213;28;20036;-82
2021/12/02 08:16:05;;;;;;;3.17;1.80;;;1.80;99.90;;;;;;5062829;28;20219;-82
2021/12/02 08:18:34;;;;;;;5.65;2.08;;;1.80;99.90;;;;;;5053445;28;20386;-82
2021/12/02 08:21:00;;;;;;;3.42;1.77;;;1.80;99.90;;;;;;5058231;28;20146;-82
2021/12/02 08:23:26;;;;;;;4.00;1.90;;;1.90;99.90;;;;;;5039567;28;20036;-82
2021/12/02 08:25:53;;;;;;;3.55;2.22;;;1.80;99.90;;;;;;5055876;28;20060;-82
2021/12/02 08:28:19;;;;;;;4.55;2.28;;;1.90;99.90;;;;;;5036003;28;20103;-82
2021/12/02 08:30:45;;;;;;;4.47;2.20;;;2.00;99.90;;;;;;5043826;28;20051;-82
2021/12/02 08:33:14;;;;;;;2.97;2.20;;;1.90;99.90;;;;;;5042099;28;20406;-82
2021/12/02 08:35:40;;;;;;;3.88;2.10;;;1.90;99.90;;;;;;5063140;28;20056;-82
2021/12/02 08:38:10;;;;;;;3.83;2.35;;;2.00;99.90;;;;;;5053615;28;20065;-82
2021/12/02 08:40:37;;;;;;;2.42;1.88;;;2.20;99.90;;;;;;5059837;28;20411;-82
2021/12/02 08:43:09;;;;;;;2.92;2.05;;;2.20;99.90;;;;;;5043313;28;20065;-82
2021/12/02 08:45:37;;;;;;;3.40;2.00;;;2.20;99.90;;;;;;5042139;28;20045;-82
2021/12/02 08:48:04;;;;;;;4.05;2.03;;;2.30;99.90;;;;;;5036466;28;20129;-82
2021/12/02 08:50:31;;;;;;;7.03;2.35;;;2.40;99.90;;;;;;5057513;28;20040;-82
2021/12/02 08:52:59;;;;;;;4.45;2.00;;;2.60;99.90;;;;;;5044275;28;20089;-82
2021/12/02 08:55:25;;;;;;;2.92;1.80;;;2.60;99.90;;;;;;5050419;28;20089;-82
2021/12/02 08:57:52;;;;;;;4.05;1.65;;;2.60;99.90;;;;;;5037541;28;20036;-82
2021/12/02 09:00:21;;;;;;;2.95;1.55;;;2.70;99.90;;;;;;5050669;28;20598;-82
2021/12/02 09:02:47;;;;;;;2.90;1.58;;;2.80;99.90;;;;;;5040984;28;20049;-82
2021/12/02 09:05:13;;;;;;;3.42;1.40;;;2.80;99.90;;;;;;5044706;28;20511;-82
2021/12/02 09:07:39;;;;;;;2.60;1.67;;;2.90;99.90;;;;;;5048124;28;20044;-82
2021/12/02 09:10:09;;;;;;;4.55;1.60;;;2.90;99.90;;;;;;5039321;28;20503;-82
2021/12/02 09:12:36;;;;;;;2.22;1.38;;;2.90;99.90;;;;;;5046486;28;20490;-82
2021/12/02 09:15:04;;;;;;;4.63;1.50;;;2.90;99.90;;;;;;5054834;28;20041;-82
2021/12/02 09:17:30;;;;;;;1.88;1.08;;;2.90;99.90;;;;;;5056745;28;20040;-82
2021/12/02 09:19:56;;;;;;;2.25;1.27;;;3.00;99.90;;;;;;5045658;28;20033;-82
2021/12/02 09:22:21;;;;;;;2.53;1.40;;;2.90;99.90;;;;;;5044236;28;20033;-82
2021/12/02 09:24:47;;;;;;;3.67;1.60;;;2.90;99.90;;;;;;5035890;28;20161;-82
2021/12/02 09:27:13;;;;;;;5.25;1.60;;;3.00;99.90;;;;;;5039869;28;20040;-83
2021/12/02 09:29:41;;;;;;;2.15;1.20;;;3.00;99.90;;;;;;5054829;28;20044;-82
2021/12/02 09:32:07;;;;;;;2.58;1.15;;;3.10;99.90;;;;;;5047871;28;20755;-82
2021/12/02 09:34:33;;;;;;;2.35;1.13;;;3.10;99.90;;;;;;5060511;28;20438;-82
2021/12/02 09:36:59;;;;;;;3.47;1.23;;;3.10;99.90;;;;;;5049612;28;20132;-82
2021/12/02 09:39:29;;;;;;;2.42;1.30;;;3.10;99.90;;;;;;5052797;28;20032;-82
2021/12/02 09:41:59;;;;;;;2.28;1.38;;;3.30;99.90;;;;;;5058182;28;20072;-82
2021/12/02 09:44:24;;;;;;;4.88;1.30;;;3.40;99.90;;;;;;5051396;28;20055;-81
2021/12/02 09:46:51;;;;;;;2.90;1.13;;;3.30;99.90;;;;;;5059297;28;20041;-82
2021/12/02 09:49:17;;;;;;;3.20;1.10;;;3.30;99.90;;;;;;5044526;28;20032;-82
2021/12/02 09:54:22;;;;;;;3.88;1.13;;;3.50;99.90;;;;;;5054678;28;20554;-82
2021/12/02 09:56:50;;;;;;;2.83;1.27;;;3.60;99.90;;;;;;5047625;28;20142;-82
2021/12/02 09:59:27;;;;;;;3.65;1.13;;;3.80;99.90;;;;;;5036048;28;20041;-82
2021/12/02 10:02:00;;;;;;;4.63;1.40;;;4.00;99.90;;;;;;5077788;28;20504;-82
2021/12/02 10:04:27;;;;;;;2.03;1.00;;;4.20;99.90;;;;;;5037849;28;20063;-82
2021/12/02 10:07:12;;;;;;;3.63;1.15;;;4.00;99.90;;;;;;5040885;28;20207;-82
2021/12/02 10:09:44;;;;;;;2.42;1.30;;;3.80;99.90;;;;;;5051047;28;20108;-82
2021/12/02 10:12:18;;;;;;;1.88;1.25;;;3.50;99.90;;;;;;5068749;28;20044;-82
2021/12/02 10:14:53;;;;;;;;;;;3.30;99.90;;;;;;5044683;28;20482;-82
2021/12/02 10:17:28;;;;;;;3.45;1.15;;;3.10;99.90;;;;;;5073824;28;19986;-83
2021/12/02 10:20:21;;;;;;;;;;;2.20;99.90;;;;;;5048902;28;20063;-83
2021/12/02 10:23:17;;;;;;;2.70;0.77;;;1.80;99.90;;;;;;5054531;28;20269;-83
2021/12/02 10:26:03;;;;;;;1.25;0.65;;;1.60;99.90;;;;;;5066213;28;20036;-83
2021/12/02 10:28:34;;;;;;;3.92;0.70;;;1.70;99.90;;;;;;5084370;28;20048;-83
2021/12/02 10:31:04;;;;;;;3.15;1.10;;;1.90;99.90;;;;;;5052669;28;20437;-82
2021/12/02 10:33:35;;;;;;;3.15;0.80;;;2.00;99.90;;;;;;5055522;28;20117;-83
2021/12/02 10:36:06;;;;;;;2.10;0.75;;;2.20;99.90;;;;;;5051275;28;20337;-82
2021/12/02 10:38:43;;;;;;;2.30;0.80;;;2.20;99.90;;;;;;5048654;28;20556;-82
2021/12/02 10:41:22;;;;;;;0.57;0.57;;;2.40;99.90;;;;;;5052514;28;20120;-82
2021/12/02 10:44:23;;;;;;;0.75;0.55;;;2.50;99.90;;;;;;5059585;28;21010;-82
2021/12/02 10:46:52;;;;;;;0.75;0.35;;;2.50;99.90;;;;;;5052081;28;20281;-82
2021/12/02 10:49:19;;;;;;;0.57;0.50;;;2.50;99.90;;;;;;5051519;28;20048;-83
2021/12/02 10:51:54;;;;;;;2.15;0.77;;;2.30;99.90;;;;;;5047329;28;20048;-82
2021/12/02 10:54:23;;;;;;;1.42;0.70;;;2.20;99.90;;;;;;5043507;28;20132;-82
2021/12/02 10:57:13;;;;;;;0.77;0.40;;;2.20;99.90;;;;;;5043030;28;20048;-82
2021/12/02 10:59:44;;;;;;;3.72;0.55;;;2.40;99.90;;;;;;5039510;28;20504;-83
2021/12/02 11:02:24;;;;;;;1.10;0.60;;;2.40;99.90;;;;;;5042219;28;20160;-82
2021/12/02 11:04:59;;;;;;;1.15;0.73;;;2.30;99.90;;;;;;5044057;28;20048;-83
2021/12/02 11:07:31;;;;;;;0.93;0.70;;;2.30;99.90;;;;;;5051241;28;20050;-82
2021/12/02 11:09:59;;;;;;;1.30;0.70;;;2.30;99.90;;;;;;5059260;28;20032;-81
2021/12/02 11:12:33;;;;;;;2.03;1.05;;;2.10;99.90;;;;;;5068711;28;20048;-83
2021/12/02 11:15:10;;;;;;;2.90;1.45;;;2.00;99.90;;;;;;5044837;28;20112;-82
2021/12/02 11:17:57;;;;;;;1.67;1.20;;;2.00;99.90;;;;;;5062722;28;20079;-83
2021/12/02 11:20:25;;;;;;;3.17;1.33;;;1.80;99.90;;;;;;5056130;28;20310;-82
2021/12/02 11:23:08;;;;;;;2.33;1.20;;;1.70;99.90;;;;;;5045402;28;20104;-82
2021/12/02 11:25:53;;;;;;;2.25;1.20;;;1.80;99.90;;;;;;5046655;28;20043;-82
2021/12/02 11:28:24;;;;;;;3.55;1.38;;;1.90;99.90;;;;;;5044768;28;20298;-83
2021/12/02 11:30:50;;;;;;;1.73;1.17;;;1.80;99.90;;;;;;5058312;28;20044;-82
2021/12/02 11:33:19;;;;;;;3.03;1.50;;;2.00;99.90;;;;;;5046753;28;20053;-82
2021/12/02 11:35:46;;;;;;;2.03;1.23;;;2.10;99.90;;;;;;5043581;28;20033;-83
2021/12/02 11:38:17;;;;;;;1.67;1.30;;;2.20;99.90;;;;;;5060164;28;20241;-82
2021/12/02 11:41:03;;;;;;;1.90;1.42;;;2.40;99.90;;;;;;5073500;28;20542;-82
2021/12/02 11:43:36;;;;;;;2.97;1.17;;;2.50;99.90;;;;;;5060836;28;20040;-82
2021/12/02 11:46:04;;;;;;;2.35;1.00;;;2.60;99.90;;;;;;5061085;28;20051;-82
2021/12/02 11:48:32;;;;;;;2.60;0.93;;;2.50;99.90;;;;;;5045418;28;20048;-82
2021/12/02 11:51:03;;;;;;;1.83;1.10;;;2.70;99.90;;;;;;5049762;28;20449;-82
2021/12/02 11:53:29;;;;;;;1.25;1.00;;;2.70;99.90;;;;;;5053577;28;20032;-82
2021/12/02 11:56:07;;;;;;;4.43;1.17;;;2.60;99.90;;;;;;5042865;28;20040;-82
2021/12/02 11:58:34;;;;;;;2.95;1.30;;;2.60;99.90;;;;;;5047881;28;20356;-82
2021/12/02 12:01:00;;;;;;;2.08;1.40;;;2.60;99.90;;;;;;5046531;28;20028;-82
2021/12/02 12:03:39;;;;;;;2.83;1.20;;;2.60;99.90;;;;;;5035438;28;20518;-82
2021/12/02 12:06:08;;;;;;;1.98;1.10;;;2.60;99.90;;;;;;5038288;28;20051;-82
2021/12/02 12:08:37;;;;;;;2.60;1.30;;;2.50;99.90;;;;;;5038268;28;20064;-82
2021/12/02 12:11:23;;;;;;;3.88;1.38;;;2.50;99.90;;;;;;5084432;28;20118;-82
2021/12/02 12:14:00;;;;;;;2.58;1.20;;;2.50;99.90;;;;;;5049656;28;20127;-82
2021/12/02 12:16:56;;;;;;;3.35;1.00;;;2.40;99.90;;;;;;5065061;28;20120;-82
2021/12/02 12:19:31;;;;;;;1.80;1.10;;;2.40;99.90;;;;;;5048035;28;20498;-82
2021/12/02 12:22:01;;;;;;;1.73;1.00;;;2.30;99.90;;;;;;5049872;28;20494;-82
2021/12/02 12:24:43;;;;;;;1.40;0.95;;;2.50;99.90;;;;;;5043006;28;20482;-82
2021/12/02 12:27:34;;;;;;;4.25;1.30;;;2.70;99.90;;;;;;5044741;28;20044;-82
2021/12/02 12:30:07;;;;;;;1.75;0.93;;;2.70;99.90;;;;;;5059188;28;22432;-82
2021/12/02 12:35:18;;;;;;;3.40;1.10;;;3.10;99.90;;;;;;5056946;28;20121;-82
2021/12/02 12:40:16;;;;;;;4.15;1.20;;;3.10;99.90;;;;;;5058593;28;22140;-82
2021/12/02 12:42:57;;;;;;;3.22;1.42;;;2.90;99.90;;;;;;5051649;28;20040;-82
2021/12/02 12:45:29;;;;;;;2.58;1.15;;;2.90;99.90;;;;;;5076336;28;20036;-82
2021/12/02 12:47:59;;;;;;;4.57;1.27;;;2.90;99.90;;;;;;5076448;28;20550;-81
2021/12/02 12:50:40;;;;;;;2.70;1.27;;;3.10;99.90;;;;;;5055763;28;20060;-82
2021/12/02 12:53:05;;;;;;;2.72;1.42;;;3.10;99.90;;;;;;5049459;28;20071;-82
2021/12/02 12:55:36;;;;;;;1.95;1.33;;;3.30;99.90;;;;;;5043095;28;20119;-82
2021/12/02 12:58:23;;;;;;;2.63;1.58;;;3.50;99.90;;;;;;5050477;28;20070;-82
2021/12/02 13:00:52;;;;;;;4.25;1.88;;;3.60;99.90;;;;;;5035111;28;20496;-82
2021/12/02 13:06:06;;;;;;;4.68;2.05;;;3.50;99.90;;;;;;5065172;28;20203;-82
2021/12/02 13:08:43;;;;;;;3.58;2.53;;;3.30;99.90;;;;;;5060753;28;20044;-81
2021/12/02 13:11:18;;;;;;;2.65;1.50;;;3.40;99.90;;;;;;5041130;28;20503;-82
2021/12/02 13:13:45;;;;;;;4.70;1.40;;;3.20;99.90;;;;;;5046029;28;20056;-82
2021/12/02 13:16:17;;;;;;;2.80;1.10;;;3.20;99.90;;;;;;5065969;28;20116;-82
2021/12/02 13:18:57;;;;;;;1.70;0.80;;;3.30;99.90;;;;;;5071674;28;20076;-82
2021/12/02 13:21:34;;;;;;;1.58;0.80;;;3.30;99.90;;;;;;5043643;28;20193;-82
2021/12/02 13:24:12;;;;;;;1.45;0.77;;;3.40;99.90;;;;;;5043922;28;20051;-82
2021/12/02 13:26:46;;;;;;;2.00;1.13;;;3.50;99.90;;;;;;5064486;28;20040;-82
2021/12/02 13:29:14;;;;;;;1.67;1.20;;;3.80;99.90;;;;;;5064674;28;20399;-82
2021/12/02 13:31:47;;;;;;;3.45;1.00;;;4.20;99.90;;;;;;5058766;28;20102;-82
2021/12/02 13:34:14;;;;;;;1.35;0.90;;;4.30;99.90;;;;;;5065135;28;20052;-82